Time;durP1;ratioP1;P1;durP2;ratioP2;P2;SDS_P1;SDS_P2;PMS_P1;PMS_P2;Temp;Humidity;BMP_temperature;BMP_pressure;BME280_temperature;BME280_humidity;BME280_pressure;Samples;Min_cycle;Max_cycle;Signal;HPM_P1;HPM_P2
2022/05/05 00:01:28;;;;;;;3.50;1.80;;;7.40;97.30;;;;;;5064515;28;20069;-70
2022/05/05 00:03:54;;;;;;;3.28;1.60;;;7.30;97.40;;;;;;5063388;28;20136;-70
2022/05/05 00:06:19;;;;;;;2.13;1.38;;;7.30;97.40;;;;;;5064884;28;20032;-70
2022/05/05 00:08:45;;;;;;;2.22;1.33;;;7.30;97.60;;;;;;5063738;28;20067;-71
2022/05/05 00:16:39;;;;;;;8.15;1.45;;;7.30;97.90;;;;;;5063923;28;21402;-71
2022/05/05 00:19:05;;;;;;;3.00;1.55;;;7.30;98.20;;;;;;5064535;28;20036;-70
2022/05/05 00:21:30;;;;;;;2.60;1.40;;;7.30;98.30;;;;;;5066679;28;20093;-70
2022/05/05 00:23:56;;;;;;;2.40;1.10;;;7.30;98.40;;;;;;5065690;28;20036;-70
2022/05/05 00:26:22;;;;;;;2.70;1.48;;;7.30;98.50;;;;;;5050320;28;20044;-70
2022/05/05 00:28:47;;;;;;;5.82;1.70;;;7.30;98.40;;;;;;5067205;28;20044;-71
2022/05/05 00:31:13;;;;;;;6.53;1.52;;;7.30;98.30;;;;;;5066584;28;20095;-70
2022/05/05 00:33:39;;;;;;;3.13;2.03;;;7.30;98.30;;;;;;5067519;28;20474;-70
2022/05/05 00:36:05;;;;;;;2.55;1.33;;;7.30;98.40;;;;;;5065781;28;20060;-70
2022/05/05 00:38:30;;;;;;;2.65;1.52;;;7.20;98.60;;;;;;5045694;28;20096;-70
2022/05/05 00:40:56;;;;;;;2.85;1.30;;;7.20;98.70;;;;;;5066880;28;20086;-70
2022/05/05 00:43:23;;;;;;;2.63;1.48;;;7.20;98.90;;;;;;5065050;28;20044;-70
2022/05/05 00:45:49;;;;;;;2.72;1.25;;;7.20;98.80;;;;;;5050841;28;20052;-70
2022/05/05 00:48:16;;;;;;;1.23;0.75;;;7.20;99.30;;;;;;5067437;28;20044;-70
2022/05/05 00:50:41;;;;;;;3.15;1.45;;;7.30;99.00;;;;;;5049466;28;20055;-70
2022/05/05 00:53:07;;;;;;;2.25;1.42;;;7.30;98.90;;;;;;5065359;28;20040;-70
2022/05/05 00:55:36;;;;;;;3.92;1.70;;;7.30;99.20;;;;;;5067026;28;20047;-70
2022/05/05 00:58:03;;;;;;;2.92;1.58;;;7.30;99.00;;;;;;5051078;28;20037;-70
2022/05/05 01:00:30;;;;;;;2.92;1.45;;;7.30;99.20;;;;;;5049318;28;20406;-71
2022/05/05 01:02:58;;;;;;;2.30;1.17;;;7.20;99.20;;;;;;5067451;28;20620;-70
2022/05/05 01:05:24;;;;;;;2.40;1.50;;;7.20;99.60;;;;;;5065531;28;20534;-70
2022/05/05 01:07:50;;;;;;;3.17;1.27;;;7.20;99.60;;;;;;5046847;28;20037;-70
2022/05/05 01:10:16;;;;;;;3.53;1.45;;;7.20;99.60;;;;;;5064667;28;20414;-70
2022/05/05 01:12:42;;;;;;;2.38;1.48;;;7.30;99.70;;;;;;5066469;28;20041;-70
2022/05/05 01:15:09;;;;;;;3.30;1.35;;;7.20;99.50;;;;;;5047128;28;20490;-70
2022/05/05 01:17:35;;;;;;;5.10;1.40;;;7.20;99.80;;;;;;5053632;28;20041;-70
2022/05/05 01:20:14;;;;;;;3.65;1.58;;;7.20;99.70;;;;;;5057970;28;20037;-70
2022/05/05 01:22:40;;;;;;;5.28;1.67;;;7.20;99.90;;;;;;5064839;28;20041;-70
2022/05/05 01:30:35;;;;;;;4.13;1.67;;;7.30;99.90;;;;;;5064222;28;20493;-70
2022/05/05 01:33:08;;;;;;;3.65;1.75;;;7.30;99.90;;;;;;5067027;28;20051;-70
2022/05/05 01:35:34;;;;;;;2.65;1.85;;;7.20;99.90;;;;;;5048803;28;20226;-71
2022/05/05 01:37:59;;;;;;;3.47;1.85;;;7.20;99.90;;;;;;5063661;28;20106;-70
2022/05/05 01:40:25;;;;;;;5.57;2.28;;;7.20;99.90;;;;;;5046082;28;20788;-70
2022/05/05 01:42:51;;;;;;;2.58;1.83;;;7.20;99.90;;;;;;5066256;28;20056;-70
2022/05/05 01:45:16;;;;;;;3.65;1.73;;;7.20;99.90;;;;;;5060592;28;20048;-70
2022/05/05 01:47:42;;;;;;;5.15;2.03;;;7.20;99.90;;;;;;5048866;28;20458;-71
2022/05/05 01:50:08;;;;;;;2.63;1.38;;;7.20;99.90;;;;;;5062765;28;20056;-70
2022/05/05 01:52:34;;;;;;;2.10;1.23;;;7.20;99.90;;;;;;5062638;28;20051;-70
2022/05/05 01:55:00;;;;;;;3.03;1.70;;;7.20;99.90;;;;;;5065398;28;20040;-70
2022/05/05 01:57:25;;;;;;;3.03;1.75;;;7.20;99.90;;;;;;5066231;28;20043;-70
2022/05/05 01:59:51;;;;;;;5.15;1.55;;;7.20;99.90;;;;;;5046469;28;20394;-70
2022/05/05 02:02:16;;;;;;;5.00;1.77;;;7.20;99.90;;;;;;5056636;28;20036;-70
2022/05/05 02:04:42;;;;;;;2.65;1.80;;;7.20;99.90;;;;;;5065646;28;20048;-70
2022/05/05 02:07:08;;;;;;;5.70;2.30;;;7.20;99.90;;;;;;5065935;28;20044;-70
2022/05/05 02:09:33;;;;;;;4.50;1.83;;;7.20;99.90;;;;;;5065231;28;20040;-70
2022/05/05 02:11:59;;;;;;;4.38;2.15;;;7.20;99.90;;;;;;5066951;28;20043;-70
2022/05/05 02:14:24;;;;;;;3.47;1.70;;;7.20;99.90;;;;;;5064466;28;20044;-70
2022/05/05 02:16:50;;;;;;;8.32;2.55;;;7.20;99.90;;;;;;5063967;28;20418;-70
2022/05/05 02:19:16;;;;;;;6.20;2.30;;;7.10;99.90;;;;;;5048710;28;20171;-70
2022/05/05 02:21:42;;;;;;;3.75;2.30;;;7.10;99.90;;;;;;5047220;28;20032;-70
2022/05/05 02:24:07;;;;;;;4.25;2.35;;;7.10;99.90;;;;;;5056891;28;20127;-70
2022/05/05 02:26:33;;;;;;;3.60;1.67;;;7.00;99.90;;;;;;5066659;28;20056;-70
2022/05/05 02:28:58;;;;;;;5.75;2.42;;;7.00;99.90;;;;;;5062925;28;20044;-70
2022/05/05 02:31:25;;;;;;;2.50;1.60;;;7.10;99.90;;;;;;5050028;28;20326;-70
2022/05/05 02:33:50;;;;;;;3.78;1.88;;;7.00;99.90;;;;;;5048322;28;20047;-70
2022/05/05 02:39:00;;;;;;;5.85;2.22;;;7.00;99.90;;;;;;5060000;28;20065;-70
2022/05/05 02:41:26;;;;;;;4.30;1.85;;;7.00;99.90;;;;;;5065235;28;20067;-70
2022/05/05 02:43:51;;;;;;;5.78;2.15;;;7.00;99.90;;;;;;5061036;28;20036;-70
2022/05/05 02:46:17;;;;;;;4.80;2.33;;;7.00;99.90;;;;;;5047190;28;20044;-70
2022/05/05 02:48:42;;;;;;;4.30;1.65;;;7.00;99.90;;;;;;5063344;28;20053;-70
2022/05/05 02:51:08;;;;;;;4.20;1.92;;;7.00;99.90;;;;;;5065204;28;20048;-70
2022/05/05 02:56:18;;;;;;;4.18;2.25;;;6.90;99.90;;;;;;5065484;28;20072;-70
2022/05/05 02:58:44;;;;;;;6.78;2.38;;;6.90;99.90;;;;;;5063988;28;20051;-70
2022/05/05 03:01:09;;;;;;;3.42;2.00;;;6.90;99.90;;;;;;5066115;28;20032;-70
2022/05/05 03:03:35;;;;;;;5.05;1.40;;;6.90;99.90;;;;;;5064410;28;20036;-70
2022/05/05 03:06:01;;;;;;;3.15;2.13;;;6.90;99.90;;;;;;5048029;28;20093;-70
2022/05/05 03:08:27;;;;;;;4.03;1.63;;;6.90;99.90;;;;;;5044334;28;20040;-71
2022/05/05 03:10:52;;;;;;;3.33;1.92;;;6.90;99.90;;;;;;5049598;28;20060;-71
2022/05/05 03:13:18;;;;;;;3.17;1.70;;;6.90;99.90;;;;;;5063305;28;20041;-70
2022/05/05 03:15:44;;;;;;;2.75;1.80;;;6.90;99.90;;;;;;5062389;28;20041;-70
2022/05/05 03:18:10;;;;;;;4.95;2.00;;;6.90;99.90;;;;;;5066703;28;20402;-70
2022/05/05 03:20:36;;;;;;;3.17;2.05;;;6.90;99.90;;;;;;5064783;28;20028;-70
2022/05/05 03:23:02;;;;;;;3.80;2.17;;;6.90;99.90;;;;;;5065472;28;20133;-71
2022/05/05 03:25:28;;;;;;;4.15;1.83;;;6.90;99.90;;;;;;5046153;28;20189;-70
2022/05/05 03:27:53;;;;;;;2.78;1.60;;;6.90;99.90;;;;;;5050788;28;20139;-71
2022/05/05 03:30:19;;;;;;;4.40;2.53;;;6.90;99.90;;;;;;5067597;28;20119;-71
2022/05/05 03:32:44;;;;;;;5.28;2.28;;;6.90;99.90;;;;;;5068838;28;20386;-70
2022/05/05 03:35:10;;;;;;;3.42;1.75;;;6.90;99.90;;;;;;5068360;28;20071;-70
2022/05/05 03:37:36;;;;;;;5.30;2.30;;;6.90;99.90;;;;;;5068503;28;20048;-70
2022/05/05 03:40:02;;;;;;;4.55;2.15;;;6.90;99.90;;;;;;5050936;28;20036;-71
2022/05/05 03:42:27;;;;;;;3.50;1.77;;;6.90;99.90;;;;;;5067984;28;20500;-71
2022/05/05 03:44:53;;;;;;;3.55;1.75;;;6.90;99.90;;;;;;5066385;28;20210;-70
2022/05/05 03:47:19;;;;;;;5.20;2.20;;;6.90;99.90;;;;;;5048313;28;20051;-71
2022/05/05 03:49:44;;;;;;;3.67;1.75;;;6.90;99.90;;;;;;5067518;28;20085;-70
2022/05/05 03:52:10;;;;;;;3.42;1.75;;;6.90;99.90;;;;;;5068338;28;20041;-71
2022/05/05 03:54:36;;;;;;;2.75;1.40;;;6.90;99.90;;;;;;5066090;28;20493;-70
2022/05/05 03:57:01;;;;;;;3.33;1.38;;;6.90;99.90;;;;;;5067675;28;20554;-70
2022/05/05 03:59:27;;;;;;;4.35;1.95;;;6.90;99.90;;;;;;5067290;28;20063;-70
2022/05/05 04:01:53;;;;;;;3.30;2.13;;;6.80;99.90;;;;;;5052149;28;20482;-70
2022/05/05 04:04:19;;;;;;;3.17;1.90;;;6.80;99.90;;;;;;5067962;28;20505;-71
2022/05/05 04:06:45;;;;;;;4.00;2.13;;;6.80;99.90;;;;;;5068125;28;20040;-70
2022/05/05 04:09:11;;;;;;;2.70;1.52;;;6.80;99.90;;;;;;5066978;28;20047;-70
2022/05/05 04:11:37;;;;;;;8.25;2.13;;;6.80;99.90;;;;;;5051315;28;20055;-70
2022/05/05 04:14:03;;;;;;;3.63;1.90;;;6.80;99.90;;;;;;5066192;28;20045;-70
2022/05/05 04:16:32;;;;;;;4.38;2.40;;;6.80;99.90;;;;;;5063530;28;20055;-71
2022/05/05 04:19:01;;;;;;;3.03;1.75;;;6.80;99.90;;;;;;5067736;28;20472;-70
2022/05/05 04:21:26;;;;;;;2.95;1.42;;;6.80;99.90;;;;;;5067946;28;20070;-70
2022/05/05 04:23:52;;;;;;;3.70;2.05;;;6.80;99.90;;;;;;5065518;28;20029;-70
2022/05/05 04:26:18;;;;;;;5.38;2.42;;;6.90;99.90;;;;;;5067990;28;20094;-70
2022/05/05 04:28:47;;;;;;;3.95;1.77;;;6.90;99.90;;;;;;5049215;28;20044;-70
2022/05/05 04:31:14;;;;;;;5.03;2.63;;;6.90;99.90;;;;;;5050547;28;20051;-70
2022/05/05 04:33:41;;;;;;;4.38;1.92;;;7.00;99.90;;;;;;5049177;28;20041;-70
2022/05/05 04:36:07;;;;;;;2.83;1.73;;;7.00;99.90;;;;;;5066428;28;20106;-71
2022/05/05 04:38:33;;;;;;;3.22;2.03;;;7.00;99.90;;;;;;5061865;28;20426;-70
2022/05/05 04:40:59;;;;;;;4.70;2.47;;;7.10;99.90;;;;;;5065800;28;20040;-70
2022/05/05 04:43:25;;;;;;;3.28;2.17;;;7.10;99.90;;;;;;5067128;28;20041;-70
2022/05/05 04:45:51;;;;;;;4.57;1.65;;;7.10;99.90;;;;;;5066218;28;20039;-70
2022/05/05 04:48:16;;;;;;;2.67;1.63;;;7.10;99.90;;;;;;5049944;28;20406;-70
2022/05/05 04:50:42;;;;;;;4.57;2.20;;;7.20;99.90;;;;;;5067769;28;20386;-70
2022/05/05 04:53:07;;;;;;;4.10;1.95;;;7.20;99.90;;;;;;5066176;28;20568;-70
2022/05/05 04:55:33;;;;;;;4.18;1.75;;;7.20;99.90;;;;;;5066895;28;20040;-70
2022/05/05 04:57:59;;;;;;;4.45;2.53;;;7.20;99.90;;;;;;5051417;28;20047;-71
2022/05/05 05:00:24;;;;;;;5.20;2.35;;;7.20;99.90;;;;;;5047635;28;20120;-71
2022/05/05 05:02:50;;;;;;;4.30;2.22;;;7.30;99.90;;;;;;5067355;28;20032;-70
2022/05/05 05:05:16;;;;;;;8.20;2.90;;;7.30;99.90;;;;;;5064090;28;20489;-70
2022/05/05 05:07:42;;;;;;;4.97;2.58;;;7.30;99.90;;;;;;5062976;28;20135;-70
2022/05/05 05:10:08;;;;;;;6.72;2.83;;;7.30;99.90;;;;;;5059640;28;20044;-70
2022/05/05 05:12:34;;;;;;;4.82;2.75;;;7.30;99.90;;;;;;5068132;28;20051;-70
2022/05/05 05:14:59;;;;;;;4.97;2.78;;;7.40;99.90;;;;;;5063659;28;20036;-71
2022/05/05 05:17:25;;;;;;;3.70;2.10;;;7.40;99.90;;;;;;5060977;28;20036;-70
2022/05/05 05:19:51;;;;;;;9.25;2.28;;;7.40;99.90;;;;;;5066012;28;20068;-70
2022/05/05 05:22:17;;;;;;;6.10;2.85;;;7.50;99.90;;;;;;5048361;28;20131;-71
2022/05/05 05:24:42;;;;;;;4.07;2.65;;;7.50;99.90;;;;;;5041333;28;20040;-70
2022/05/05 05:27:08;;;;;;;5.82;2.38;;;7.60;99.90;;;;;;5061818;28;20531;-71
2022/05/05 05:29:34;;;;;;;10.15;2.92;;;7.60;99.90;;;;;;5046046;28;20049;-70
2022/05/05 05:32:00;;;;;;;4.32;2.63;;;7.70;99.90;;;;;;5049413;28;20068;-70
2022/05/05 05:34:25;;;;;;;8.85;3.20;;;7.70;99.90;;;;;;5049482;28;20044;-70
2022/05/05 05:36:51;;;;;;;4.97;2.90;;;7.70;99.90;;;;;;5062831;28;20036;-71
2022/05/05 05:39:18;;;;;;;4.90;2.20;;;7.80;99.90;;;;;;5031485;28;20091;-70
2022/05/05 05:41:44;;;;;;;7.22;2.75;;;7.90;99.90;;;;;;5065942;28;20044;-70
2022/05/05 05:44:10;;;;;;;4.07;2.55;;;7.90;99.90;;;;;;5063469;28;20040;-71
2022/05/05 05:46:36;;;;;;;5.72;3.05;;;8.00;99.90;;;;;;5063892;28;20458;-71
2022/05/05 05:49:02;;;;;;;6.10;2.85;;;8.00;99.90;;;;;;5063706;28;20071;-70
2022/05/05 05:51:28;;;;;;;5.57;2.25;;;8.10;99.90;;;;;;5064203;28;20044;-70
2022/05/05 05:53:54;;;;;;;5.75;2.80;;;8.10;99.90;;;;;;5065202;28;20078;-71
2022/05/05 05:56:19;;;;;;;6.53;3.40;;;8.10;99.90;;;;;;5064993;28;20044;-70
2022/05/05 05:58:45;;;;;;;6.22;3.05;;;8.20;99.90;;;;;;5060689;28;20202;-71
2022/05/05 06:01:11;;;;;;;5.88;2.50;;;8.30;99.90;;;;;;5063245;28;20041;-71
2022/05/05 06:03:54;;;;;;;8.27;3.75;;;8.40;99.90;;;;;;5064175;28;20128;-71
2022/05/05 06:06:21;;;;;;;4.30;2.70;;;8.40;99.90;;;;;;5064999;28;20041;-71
2022/05/05 06:08:46;;;;;;;7.32;3.20;;;8.50;99.90;;;;;;5048027;28;20498;-70
2022/05/05 06:11:13;;;;;;;4.68;2.65;;;8.60;99.90;;;;;;5048813;28;20039;-71
2022/05/05 06:13:39;;;;;;;5.93;3.22;;;8.80;99.90;;;;;;5060971;28;20051;-70
2022/05/05 06:16:06;;;;;;;5.53;3.42;;;8.80;99.90;;;;;;5065965;28;20033;-71
2022/05/05 06:18:35;;;;;;;5.90;2.42;;;9.00;99.90;;;;;;5062779;28;20058;-71
2022/05/05 06:21:01;;;;;;;7.32;3.17;;;9.30;99.90;;;;;;5064355;28;20037;-71
2022/05/05 06:23:27;;;;;;;4.80;2.88;;;9.70;99.90;;;;;;5057923;28;20028;-70
2022/05/05 06:25:52;;;;;;;4.60;2.25;;;9.90;99.90;;;;;;5065500;28;20080;-71
2022/05/05 06:28:18;;;;;;;8.50;3.38;;;9.90;99.90;;;;;;5065441;28;20072;-71
2022/05/05 06:30:43;;;;;;;6.00;3.00;;;9.90;99.90;;;;;;5066600;28;20555;-70
2022/05/05 06:33:09;;;;;;;6.05;2.92;;;9.90;99.90;;;;;;5066398;28;20478;-71
2022/05/05 06:35:36;;;;;;;6.32;3.45;;;9.90;99.90;;;;;;5064235;28;20043;-71
2022/05/05 06:38:02;;;;;;;4.00;2.42;;;9.90;99.90;;;;;;5064572;28;20053;-71
2022/05/05 06:40:28;;;;;;;3.53;2.10;;;10.00;99.90;;;;;;5043641;28;20043;-71
2022/05/05 06:42:54;;;;;;;5.72;2.55;;;10.10;99.90;;;;;;5064342;28;20029;-71
2022/05/05 06:45:19;;;;;;;3.17;2.17;;;10.10;99.90;;;;;;5057767;28;20044;-71
2022/05/05 06:47:45;;;;;;;7.32;2.30;;;10.10;99.90;;;;;;5054564;28;20414;-71
2022/05/05 06:50:11;;;;;;;2.97;2.08;;;10.20;99.90;;;;;;5055801;28;20044;-71
2022/05/05 06:52:37;;;;;;;5.93;2.55;;;10.30;99.90;;;;;;5060244;28;20421;-71
2022/05/05 06:55:04;;;;;;;4.32;2.28;;;10.30;99.90;;;;;;5059875;28;20244;-71
2022/05/05 06:57:30;;;;;;;4.55;2.40;;;10.40;99.90;;;;;;5060536;28;20044;-71
2022/05/05 06:59:55;;;;;;;9.45;3.25;;;10.50;99.90;;;;;;5057301;28;20159;-71
2022/05/05 07:02:22;;;;;;;5.05;2.33;;;10.50;99.90;;;;;;5060949;28;20503;-71
2022/05/05 07:07:31;;;;;;;3.60;2.28;;;10.70;99.90;;;;;;5062205;28;20422;-70
2022/05/05 07:12:41;;;;;;;3.67;1.65;;;10.80;99.90;;;;;;5065727;28;20447;-71
2022/05/05 07:15:07;;;;;;;6.00;2.10;;;10.90;99.90;;;;;;5066261;28;20121;-71
2022/05/05 07:17:33;;;;;;;5.20;2.50;;;10.90;99.90;;;;;;5067487;28;20123;-71
2022/05/05 07:19:58;;;;;;;4.22;2.05;;;11.00;99.90;;;;;;5067675;28;20166;-71
2022/05/05 07:22:24;;;;;;;2.20;1.50;;;11.00;99.90;;;;;;5067974;28;20056;-71
2022/05/05 07:24:50;;;;;;;4.57;1.70;;;11.10;99.90;;;;;;5068719;28;20112;-71
2022/05/05 07:27:15;;;;;;;3.22;1.63;;;11.10;99.90;;;;;;5052702;28;20112;-71
2022/05/05 07:29:41;;;;;;;4.57;2.67;;;11.20;99.90;;;;;;5068961;28;20040;-71
2022/05/05 07:32:08;;;;;;;2.78;1.60;;;11.30;99.90;;;;;;5053089;28;20044;-71
2022/05/05 07:34:34;;;;;;;3.42;2.22;;;11.30;99.90;;;;;;5068542;28;20037;-71
2022/05/05 07:37:00;;;;;;;3.50;1.90;;;11.40;99.90;;;;;;5069577;28;20044;-71
2022/05/05 07:39:26;;;;;;;3.95;1.83;;;11.40;99.90;;;;;;5068105;28;20045;-71
2022/05/05 07:41:52;;;;;;;7.25;1.73;;;11.50;99.90;;;;;;5067846;28;20063;-71
2022/05/05 07:44:17;;;;;;;5.53;1.63;;;11.50;99.90;;;;;;5077063;28;20036;-71
2022/05/05 07:46:43;;;;;;;4.63;1.77;;;11.60;99.90;;;;;;5069571;28;20151;-71
2022/05/05 07:49:09;;;;;;;2.80;1.33;;;11.60;99.90;;;;;;5069644;28;20060;-71
2022/05/05 07:51:35;;;;;;;4.60;1.90;;;11.70;99.90;;;;;;5052725;28;20054;-71
2022/05/05 07:56:46;;;;;;;2.90;1.50;;;11.70;99.90;;;;;;5069207;28;20099;-71
2022/05/05 07:59:12;;;;;;;2.97;1.20;;;11.80;99.90;;;;;;5067210;28;20072;-71
2022/05/05 08:01:38;;;;;;;3.58;1.52;;;11.80;99.90;;;;;;5067071;28;20440;-71
2022/05/05 08:04:04;;;;;;;2.65;1.30;;;11.80;99.90;;;;;;5067691;28;20036;-71
2022/05/05 08:06:33;;;;;;;5.45;1.67;;;11.90;99.60;;;;;;5068861;28;20048;-71
2022/05/05 08:08:59;;;;;;;4.68;1.17;;;12.00;99.80;;;;;;5052164;28;20044;-71
2022/05/05 08:11:24;;;;;;;2.50;1.35;;;12.00;99.30;;;;;;5068984;28;20399;-71
2022/05/05 08:13:52;;;;;;;1.67;0.82;;;12.00;99.00;;;;;;5067715;28;20059;-71
2022/05/05 08:16:18;;;;;;;1.58;0.98;;;12.10;98.80;;;;;;5068064;28;20048;-71
2022/05/05 08:18:45;;;;;;;2.85;1.17;;;12.10;98.50;;;;;;5068199;28;20089;-71
2022/05/05 08:21:10;;;;;;;2.42;0.95;;;12.20;98.10;;;;;;5069090;28;20398;-71
2022/05/05 08:23:37;;;;;;;2.80;0.90;;;12.30;97.50;;;;;;5068709;28;20029;-71
2022/05/05 08:28:47;;;;;;;2.78;1.27;;;12.40;97.30;;;;;;5066767;28;20079;-71
2022/05/05 08:31:13;;;;;;;3.80;1.20;;;12.50;96.90;;;;;;5067655;28;20040;-71
2022/05/05 08:33:38;;;;;;;2.63;1.20;;;12.40;96.60;;;;;;5068527;28;20063;-71
2022/05/05 08:36:06;;;;;;;5.60;1.58;;;12.60;96.50;;;;;;5067646;28;20045;-71
2022/05/05 08:38:32;;;;;;;2.00;1.08;;;12.50;96.20;;;;;;5066918;28;20398;-71
2022/05/05 08:40:58;;;;;;;2.50;1.40;;;12.60;96.00;;;;;;5066665;28;20047;-71
2022/05/05 08:43:24;;;;;;;2.90;1.30;;;12.70;96.00;;;;;;5051401;28;20500;-71
2022/05/05 08:45:51;;;;;;;5.20;1.40;;;12.70;96.10;;;;;;5062981;28;20121;-70
2022/05/05 08:48:17;;;;;;;3.80;1.42;;;12.80;95.90;;;;;;5064899;28;20074;-71
2022/05/05 08:50:46;;;;;;;2.63;1.13;;;12.90;95.90;;;;;;5046034;28;20037;-75
2022/05/05 08:53:14;;;;;;;2.72;1.08;;;12.90;95.00;;;;;;5063909;28;20059;-71
2022/05/05 08:55:41;;;;;;;3.58;1.33;;;13.00;95.10;;;;;;5059599;28;20032;-71
2022/05/05 08:58:06;;;;;;;2.03;1.00;;;13.00;95.30;;;;;;5063174;28;20485;-71
2022/05/05 09:00:32;;;;;;;1.92;1.10;;;13.10;95.70;;;;;;5065282;28;20101;-71
2022/05/05 09:03:04;;;;;;;2.53;1.17;;;13.20;95.50;;;;;;5045993;28;20518;-70
2022/05/05 09:05:46;;;;;;;2.85;1.10;;;13.30;95.10;;;;;;5062973;28;20048;-71
2022/05/05 09:08:12;;;;;;;1.65;0.80;;;13.30;94.00;;;;;;5062062;28;21101;-71
2022/05/05 09:10:45;;;;;;;3.67;1.70;;;13.40;94.90;;;;;;5044655;28;20037;-71
2022/05/05 09:13:11;;;;;;;2.72;1.10;;;13.40;94.20;;;;;;5060749;28;20032;-71
2022/05/05 09:15:40;;;;;;;2.85;1.50;;;13.50;94.60;;;;;;5063220;28;20039;-71
2022/05/05 09:18:14;;;;;;;1.73;1.00;;;13.40;93.90;;;;;;5042884;28;20079;-71
2022/05/05 09:20:42;;;;;;;2.65;1.05;;;13.40;93.20;;;;;;5042656;28;20127;-70
2022/05/05 09:23:07;;;;;;;2.95;1.27;;;13.40;94.20;;;;;;5046506;28;20494;-71
2022/05/05 09:25:46;;;;;;;4.45;1.40;;;13.50;94.20;;;;;;5062276;28;20040;-70
2022/05/05 09:28:17;;;;;;;2.35;1.08;;;13.60;93.40;;;;;;5062395;28;20043;-71
2022/05/05 09:30:52;;;;;;;4.32;1.30;;;13.60;93.80;;;;;;5063664;28;20107;-71
2022/05/05 09:33:35;;;;;;;;;;;13.70;92.20;;;;;;5046583;28;20036;-71
2022/05/05 09:36:06;;;;;;;2.85;1.38;;;13.70;89.30;;;;;;5062090;28;19928;-71
2022/05/05 09:38:51;;;;;;;2.13;1.00;;;13.70;92.40;;;;;;5045172;28;20052;-71
2022/05/05 09:41:18;;;;;;;1.73;0.90;;;13.70;91.20;;;;;;5046113;28;20626;-71
2022/05/05 09:43:43;;;;;;;5.18;1.27;;;13.70;93.20;;;;;;5041927;28;20109;-70
2022/05/05 09:46:25;;;;;;;3.58;1.58;;;13.70;92.80;;;;;;5039773;28;20036;-71
2022/05/05 09:49:11;;;;;;;1.98;0.98;;;13.80;91.80;;;;;;5056521;28;20131;-71
2022/05/05 09:51:40;;;;;;;3.28;1.45;;;13.90;92.90;;;;;;5057742;28;20040;-71
2022/05/05 10:00:09;;;;;;;3.40;1.52;;;14.00;92.20;;;;;;4983300;28;20042;-71
2022/05/05 10:05:22;;;;;;;4.30;1.65;;;14.40;92.20;;;;;;4984512;28;20665;-71
2022/05/05 10:07:52;;;;;;;5.13;1.77;;;14.50;91.30;;;;;;5015209;28;20041;-71
2022/05/05 10:10:18;;;;;;;2.72;1.50;;;14.50;91.10;;;;;;5057207;28;20060;-71
2022/05/05 10:12:45;;;;;;;4.93;1.40;;;14.40;91.00;;;;;;5056113;28;20036;-71
2022/05/05 10:15:12;;;;;;;4.22;1.25;;;14.40;91.10;;;;;;5052594;28;20036;-71
2022/05/05 10:17:39;;;;;;;4.55;1.35;;;14.40;90.90;;;;;;5058490;28;20045;-71
2022/05/05 10:20:06;;;;;;;3.75;1.70;;;14.50;91.60;;;;;;5056962;28;20405;-71
2022/05/05 10:23:06;;;;;;;2.97;1.52;;;14.60;91.20;;;;;;5056644;28;20036;-71
2022/05/05 10:25:33;;;;;;;2.92;1.40;;;14.60;90.30;;;;;;5057102;28;20047;-71
2022/05/05 10:27:59;;;;;;;2.70;1.25;;;14.60;90.70;;;;;;5042297;28;20048;-71
2022/05/05 10:30:34;;;;;;;3.15;1.20;;;14.60;90.70;;;;;;5040942;28;20513;-71
2022/05/05 10:33:04;;;;;;;3.47;1.95;;;14.70;88.70;;;;;;5058314;28;20131;-71
2022/05/05 10:35:47;;;;;;;2.30;1.27;;;14.70;90.00;;;;;;5041225;28;20040;-71
2022/05/05 10:38:41;;;;;;;6.65;1.35;;;14.80;88.80;;;;;;5063850;28;20052;-71
2022/05/05 10:41:37;;;;;;;3.97;2.00;;;14.80;85.20;;;;;;5080557;28;20139;-71
2022/05/05 10:44:19;;;;;;;4.15;1.40;;;14.90;86.20;;;;;;5045253;28;20040;-71
2022/05/05 10:47:02;;;;;;;2.10;1.15;;;15.00;87.40;;;;;;5064271;28;20062;-70
2022/05/05 10:49:31;;;;;;;2.42;1.30;;;15.00;86.50;;;;;;5065549;28;20040;-71
2022/05/05 10:52:09;;;;;;;2.92;1.50;;;15.10;87.20;;;;;;5048583;28;20379;-71
2022/05/05 10:54:36;;;;;;;2.42;1.25;;;15.10;86.20;;;;;;5060910;28;20393;-71
2022/05/05 10:57:27;;;;;;;4.18;1.67;;;15.20;88.00;;;;;;5066296;28;20717;-71
2022/05/05 11:00:22;;;;;;;2.78;1.58;;;15.20;84.60;;;;;;5064445;28;20450;-71
2022/05/05 11:03:03;;;;;;;3.35;1.88;;;15.30;83.80;;;;;;5042173;28;20148;-71
2022/05/05 11:05:35;;;;;;;4.10;1.60;;;15.30;84.10;;;;;;5062338;28;20052;-71
2022/05/05 11:08:09;;;;;;;3.17;1.50;;;15.30;86.00;;;;;;5065216;28;20049;-71
2022/05/05 11:10:41;;;;;;;3.33;1.92;;;15.30;85.60;;;;;;5057143;28;20040;-71
2022/05/05 11:13:25;;;;;;;10.23;3.45;;;15.40;86.10;;;;;;5062730;28;20040;-71
2022/05/05 11:21:36;;;;;;;9.60;3.28;;;16.00;88.00;;;;;;5065059;28;20485;-72
2022/05/05 11:24:02;;;;;;;2.95;1.55;;;16.10;86.70;;;;;;5064742;28;20059;-72
2022/05/05 11:26:29;;;;;;;2.78;1.50;;;16.10;86.20;;;;;;5048959;28;20486;-71
2022/05/05 11:28:58;;;;;;;2.85;1.52;;;16.20;85.30;;;;;;5041511;28;20078;-71
2022/05/05 11:31:30;;;;;;;6.45;1.98;;;16.20;84.00;;;;;;5043879;28;20029;-71
2022/05/05 11:34:03;;;;;;;5.93;1.40;;;16.10;83.70;;;;;;5062521;28;20037;-71
2022/05/05 11:36:41;;;;;;;3.75;1.55;;;16.10;84.60;;;;;;5064916;28;20057;-71
2022/05/05 11:39:10;;;;;;;2.88;1.48;;;16.10;82.90;;;;;;5065995;28;20049;-71
2022/05/05 11:41:36;;;;;;;3.03;1.40;;;16.10;83.70;;;;;;5050663;28;20052;-71
2022/05/05 11:44:17;;;;;;;6.60;1.38;;;16.10;82.80;;;;;;5065569;28;20048;-71
2022/05/05 11:46:44;;;;;;;3.60;1.65;;;16.10;82.90;;;;;;5061653;28;20033;-71
2022/05/05 11:49:10;;;;;;;2.05;1.27;;;16.10;83.40;;;;;;5042442;28;20040;-72
2022/05/05 11:51:36;;;;;;;4.03;1.50;;;16.10;83.10;;;;;;5061210;28;20040;-72
2022/05/05 11:54:02;;;;;;;3.28;1.58;;;16.20;83.90;;;;;;5039180;28;20520;-71
2022/05/05 11:56:28;;;;;;;4.15;1.83;;;16.20;83.00;;;;;;5059259;28;20036;-71
2022/05/05 12:01:41;;;;;;;2.97;1.48;;;16.20;82.20;;;;;;5062391;28;20040;-71
2022/05/05 12:04:10;;;;;;;2.45;1.40;;;16.30;82.60;;;;;;5063677;28;20639;-71
2022/05/05 12:06:38;;;;;;;3.33;1.52;;;16.20;82.00;;;;;;5043617;28;20129;-71
2022/05/05 12:09:06;;;;;;;3.60;1.52;;;16.30;80.90;;;;;;5061168;28;20129;-71
2022/05/05 12:11:32;;;;;;;6.40;2.08;;;16.30;81.30;;;;;;5064324;28;20734;-71
2022/05/05 12:14:06;;;;;;;4.97;1.83;;;16.40;81.20;;;;;;5060688;28;20668;-71
2022/05/05 12:16:37;;;;;;;4.43;1.88;;;16.50;80.50;;;;;;5060472;28;20505;-71
2022/05/05 12:19:13;;;;;;;3.40;1.38;;;16.60;79.20;;;;;;5045177;28;20086;-71
2022/05/05 12:21:53;;;;;;;2.60;1.42;;;16.70;75.90;;;;;;5060651;28;20497;-71
2022/05/05 12:24:22;;;;;;;2.60;1.30;;;16.70;71.50;;;;;;5060929;28;20433;-70
2022/05/05 12:26:49;;;;;;;3.53;1.45;;;16.60;75.50;;;;;;5045032;28;20044;-71
2022/05/05 12:29:15;;;;;;;2.22;1.35;;;16.60;74.90;;;;;;5060851;28;20043;-71
2022/05/05 12:31:57;;;;;;;3.47;1.55;;;16.60;75.20;;;;;;5062413;28;20032;-71
2022/05/05 12:34:27;;;;;;;3.35;1.38;;;16.60;70.10;;;;;;5046107;28;20032;-71
2022/05/05 12:37:13;;;;;;;2.90;1.52;;;16.50;75.00;;;;;;5061882;28;20109;-71
2022/05/05 12:39:58;;;;;;;3.55;1.50;;;16.50;69.00;;;;;;5038480;28;20457;-71
2022/05/05 12:42:36;;;;;;;3.13;1.63;;;16.50;70.00;;;;;;5043062;28;20087;-71
2022/05/05 12:45:02;;;;;;;3.60;1.60;;;16.50;73.60;;;;;;5021828;28;20052;-70
2022/05/05 12:47:28;;;;;;;3.08;1.55;;;16.60;75.20;;;;;;5040374;28;20049;-69
2022/05/05 12:49:53;;;;;;;3.78;1.80;;;16.60;74.10;;;;;;5039695;28;20193;-70
2022/05/05 13:00:50;;;;;;;2.72;1.45;;;17.20;63.40;;;;;;5035596;28;19925;-70
2022/05/05 13:03:15;;;;;;;2.83;1.48;;;17.10;73.20;;;;;;5023080;28;20045;-71
2022/05/05 13:05:42;;;;;;;4.53;1.33;;;17.20;73.80;;;;;;5039311;28;20045;-71
2022/05/05 13:08:07;;;;;;;3.03;1.45;;;17.20;73.50;;;;;;5038830;28;20059;-71
2022/05/05 13:10:33;;;;;;;3.80;1.60;;;17.20;72.50;;;;;;5039943;28;20040;-71
2022/05/05 13:12:58;;;;;;;3.10;1.60;;;17.20;70.70;;;;;;5027602;28;20094;-71
2022/05/05 13:15:24;;;;;;;5.03;2.00;;;17.20;70.80;;;;;;5041630;28;20075;-71
2022/05/05 13:17:49;;;;;;;2.53;1.25;;;17.20;71.20;;;;;;5042755;28;20047;-71
2022/05/05 13:20:15;;;;;;;5.10;1.67;;;17.10;70.80;;;;;;5043364;28;20368;-71
2022/05/05 13:22:41;;;;;;;3.13;1.65;;;17.10;71.40;;;;;;5041796;28;20512;-71
2022/05/05 13:25:07;;;;;;;3.42;1.55;;;17.10;72.40;;;;;;5043686;28;20037;-71
2022/05/05 13:27:33;;;;;;;3.13;1.30;;;17.10;71.90;;;;;;5041151;28;20048;-71
2022/05/05 13:29:58;;;;;;;2.42;1.17;;;17.10;72.90;;;;;;5041265;28;20044;-70
2022/05/05 13:32:24;;;;;;;3.53;1.35;;;17.10;73.00;;;;;;5024719;28;20044;-70
2022/05/05 13:34:52;;;;;;;3.85;1.52;;;17.20;72.60;;;;;;5024519;28;20041;-71
2022/05/05 13:37:18;;;;;;;3.35;1.30;;;17.20;72.10;;;;;;5043800;28;20059;-71
2022/05/05 13:39:44;;;;;;;2.53;1.50;;;17.10;73.10;;;;;;5042124;28;20036;-71
2022/05/05 13:42:10;;;;;;;3.50;1.30;;;17.20;73.60;;;;;;5045069;28;20090;-71
2022/05/05 13:44:35;;;;;;;4.03;1.40;;;17.20;73.10;;;;;;5062135;28;20021;-71
2022/05/05 13:47:01;;;;;;;3.65;1.85;;;17.30;71.80;;;;;;5058295;28;20066;-71
2022/05/05 13:49:26;;;;;;;2.22;1.30;;;17.30;72.00;;;;;;5055897;28;20179;-71